createdAt,value
2018-05-18T00:01:16.972Z,3.97
2018-05-18T00:03:44.541Z,3.33
2018-05-18T00:06:12.086Z,3.60
2018-05-18T00:08:39.661Z,4.43
2018-05-18T00:11:07.206Z,4.27
2018-05-18T00:13:34.796Z,3.57
2018-05-18T00:16:02.342Z,3.13
2018-05-18T00:18:29.901Z,3.80
2018-05-18T00:20:57.496Z,3.90
2018-05-18T00:23:25.815Z,3.53
2018-05-18T00:25:53.381Z,3.23
2018-05-18T00:28:20.960Z,3.43
2018-05-18T00:30:49.515Z,4.33
2018-05-18T00:33:17.091Z,3.83
2018-05-18T00:35:44.683Z,3.30
2018-05-18T00:38:12.237Z,3.07
2018-05-18T00:40:39.815Z,3.47
2018-05-18T00:43:07.417Z,2.93
2018-05-18T00:45:35.006Z,4.67
2018-05-18T00:48:02.557Z,3.37
2018-05-18T00:50:30.118Z,3.27
2018-05-18T00:52:57.681Z,3.20
2018-05-18T00:55:37.033Z,3.17
2018-05-18T00:58:04.575Z,2.37
2018-05-18T01:00:32.142Z,2.57
2018-05-18T01:02:59.691Z,3.20
2018-05-18T01:05:27.256Z,2.83
2018-05-18T01:07:54.803Z,3.00
2018-05-18T01:10:22.358Z,4.07
2018-05-18T01:12:49.901Z,3.03
2018-05-18T01:15:17.492Z,3.57
2018-05-18T01:17:45.059Z,4.33
2018-05-18T01:20:12.650Z,2.53
2018-05-18T01:22:40.224Z,3.97
2018-05-18T01:25:07.794Z,2.33
2018-05-18T01:27:36.113Z,3.00
2018-05-18T01:30:03.682Z,2.63
2018-05-18T01:32:31.240Z,3.90
2018-05-18T01:34:58.823Z,3.23
2018-05-18T01:37:26.375Z,3.03
2018-05-18T01:39:53.977Z,2.83
2018-05-18T01:42:21.536Z,3.17
2018-05-18T01:44:49.836Z,3.17
2018-05-18T01:47:17.403Z,3.23
2018-05-18T01:49:44.955Z,3.63
2018-05-18T01:52:12.533Z,3.77
2018-05-18T01:54:40.082Z,3.57
2018-05-18T01:57:07.657Z,5.00
2018-05-18T01:59:35.210Z,3.80
2018-05-18T02:02:02.783Z,3.53
2018-05-18T02:04:30.341Z,3.47
2018-05-18T02:06:57.903Z,3.33
2018-05-18T02:09:25.443Z,3.57
2018-05-18T02:11:53.026Z,3.50
2018-05-18T02:14:20.584Z,3.73
2018-05-18T02:16:48.147Z,2.60
2018-05-18T02:19:15.703Z,3.83
2018-05-18T02:21:43.301Z,3.93
2018-05-18T02:24:11.994Z,3.20
2018-05-18T02:26:39.562Z,3.73
2018-05-18T02:29:07.126Z,2.90
2018-05-18T02:31:34.716Z,3.53
2018-05-18T02:34:02.316Z,3.93
2018-05-18T02:36:29.878Z,3.20
2018-05-18T02:38:57.435Z,4.47
2018-05-18T02:41:24.994Z,4.73
2018-05-18T02:43:52.548Z,4.73
2018-05-18T02:46:20.151Z,3.93
2018-05-18T02:48:47.718Z,3.90
2018-05-18T02:51:15.323Z,3.53
2018-05-18T02:53:42.874Z,3.27
2018-05-18T02:56:10.444Z,3.47
2018-05-18T02:58:38.005Z,2.77
2018-05-18T03:01:05.569Z,4.43
2018-05-18T03:03:33.124Z,4.13
2018-05-18T03:06:01.678Z,3.23
2018-05-18T03:08:29.285Z,3.40
2018-05-18T03:10:56.844Z,3.83
2018-05-18T03:13:25.421Z,3.20
2018-05-18T03:15:52.967Z,4.53
2018-05-18T03:18:20.544Z,3.40
2018-05-18T03:20:48.076Z,3.53
2018-05-18T03:23:15.656Z,4.60
2018-05-18T03:25:43.202Z,3.57
2018-05-18T03:28:10.764Z,3.37
2018-05-18T03:30:39.332Z,3.23
2018-05-18T03:33:07.432Z,3.63
2018-05-18T03:35:34.960Z,2.67
2018-05-18T03:38:02.539Z,3.57
2018-05-18T03:40:30.080Z,3.03
2018-05-18T03:42:57.661Z,3.50
2018-05-18T03:45:25.217Z,2.83
2018-05-18T03:47:52.785Z,3.60
2018-05-18T03:50:20.359Z,3.30
2018-05-18T03:52:47.915Z,3.77
2018-05-18T03:55:15.447Z,3.90
2018-05-18T03:57:43.007Z,2.80
2018-05-18T04:00:10.548Z,4.20
2018-05-18T04:02:51.093Z,3.87
2018-05-18T04:05:30.602Z,3.30
2018-05-18T04:08:09.956Z,3.53
2018-05-18T04:10:37.503Z,3.07
2018-05-18T04:13:05.063Z,3.43
2018-05-18T04:15:32.624Z,2.93
2018-05-18T04:18:00.214Z,3.63
2018-05-18T04:20:27.762Z,3.10
2018-05-18T04:22:55.290Z,3.47
2018-05-18T04:25:22.854Z,4.30
2018-05-18T04:27:50.379Z,3.00
2018-05-18T04:30:18.841Z,2.80
2018-05-18T04:32:46.359Z,3.67
2018-05-18T04:35:13.915Z,3.30
2018-05-18T04:37:41.464Z,3.57
2018-05-18T04:40:09.037Z,2.97
2018-05-18T04:42:36.588Z,3.83
2018-05-18T04:45:04.172Z,4.40
2018-05-18T04:47:31.700Z,4.27
2018-05-18T04:49:59.304Z,3.23
2018-05-18T04:52:27.622Z,2.97
2018-05-18T04:54:55.215Z,3.37
2018-05-18T04:57:22.766Z,4.27
2018-05-18T04:59:50.335Z,3.37
2018-05-18T05:02:17.894Z,3.47
2018-05-18T05:04:45.445Z,3.27
2018-05-18T05:07:12.996Z,3.37
2018-05-18T05:09:40.569Z,3.30
2018-05-18T05:12:08.107Z,3.83
2018-05-18T05:14:36.428Z,3.93
2018-05-18T05:17:03.962Z,2.97
2018-05-18T05:19:31.535Z,2.67
2018-05-18T05:21:59.086Z,3.57
2018-05-18T05:24:26.622Z,3.63
2018-05-18T05:26:54.951Z,4.57
2018-05-18T05:29:22.490Z,4.00
2018-05-18T05:31:50.043Z,3.80
2018-05-18T05:34:17.580Z,3.63
2018-05-18T05:36:48.585Z,3.43
2018-05-18T05:39:16.756Z,4.33
2018-05-18T05:41:44.325Z,4.20
2018-05-18T05:44:11.887Z,3.13
2018-05-18T05:46:39.439Z,4.43
2018-05-18T05:49:06.978Z,3.37
2018-05-18T05:51:34.563Z,3.73
2018-05-18T05:54:02.131Z,4.53
2018-05-18T05:56:29.680Z,4.33
2018-05-18T05:58:57.217Z,3.77
2018-05-18T06:01:24.766Z,4.17
2018-05-18T06:03:52.319Z,3.77
2018-05-18T06:06:20.657Z,4.10
2018-05-18T06:08:49.172Z,3.93
2018-05-18T06:11:17.520Z,3.83
2018-05-18T06:13:45.059Z,3.40
2018-05-18T06:16:12.624Z,3.50
2018-05-18T06:18:40.164Z,3.97
2018-05-18T06:21:07.719Z,3.37
2018-05-18T06:23:35.271Z,4.33
2018-05-18T06:26:02.822Z,4.53
2018-05-18T06:28:30.413Z,3.53
2018-05-18T06:30:57.994Z,3.80
2018-05-18T06:33:25.536Z,4.30
2018-05-18T06:35:53.295Z,3.40
2018-05-18T06:38:20.861Z,3.37
2018-05-18T06:40:48.409Z,3.90
2018-05-18T06:43:15.967Z,3.43
2018-05-18T06:45:43.506Z,3.67
2018-05-18T06:48:11.059Z,3.50
2018-05-18T06:50:39.374Z,4.87
2018-05-18T06:53:06.953Z,3.57
2018-05-18T06:55:34.496Z,4.03
2018-05-18T06:58:02.861Z,3.83
2018-05-18T07:00:30.414Z,3.70
2018-05-18T07:02:57.977Z,3.40
2018-05-18T07:05:25.535Z,3.50
2018-05-18T07:07:53.102Z,3.17
2018-05-18T07:10:20.648Z,3.80
2018-05-18T07:12:48.205Z,3.40
2018-05-18T07:15:15.746Z,3.05
2018-05-18T07:17:44.075Z,3.15
2018-05-18T07:20:11.623Z,2.80
2018-05-18T07:22:39.193Z,3.00
2018-05-18T07:28:09.568Z,3.15
2018-05-18T07:30:37.104Z,2.97
2018-05-18T07:33:04.744Z,2.92
2018-05-18T07:35:32.273Z,3.53
2018-05-18T07:37:59.824Z,3.58
2018-05-18T07:40:28.127Z,2.95
2018-05-18T07:42:55.686Z,3.15
2018-05-18T07:45:23.227Z,2.62
2018-05-18T07:47:50.785Z,2.92
2018-05-18T07:50:18.322Z,3.20
2018-05-18T07:52:45.868Z,3.45
2018-05-18T07:55:13.411Z,3.25
2018-05-18T07:57:41.025Z,3.33
2018-05-18T08:00:08.572Z,2.97
2018-05-18T08:02:36.125Z,3.15
2018-05-18T08:05:03.655Z,3.12
2018-05-18T08:07:32.037Z,2.75
2018-05-18T08:10:00.332Z,3.50
2018-05-18T08:12:27.868Z,3.78
2018-05-18T08:14:56.171Z,3.60
2018-05-18T08:17:23.743Z,3.10
2018-05-18T08:19:51.305Z,3.42
2018-05-18T08:22:18.838Z,3.22
2018-05-18T08:24:46.404Z,3.25
2018-05-18T08:27:22.600Z,3.65
2018-05-18T08:29:50.957Z,3.35
2018-05-18T08:32:18.494Z,4.25
2018-05-18T08:34:46.053Z,3.62
2018-05-18T08:37:14.392Z,3.35
2018-05-18T08:39:41.934Z,3.67
2018-05-18T08:42:09.689Z,3.60
2018-05-18T08:44:37.235Z,3.25
2018-05-18T08:47:05.708Z,3.12
2018-05-18T08:49:34.182Z,3.28
2018-05-18T08:52:02.495Z,3.30
2018-05-18T08:54:30.076Z,3.25
2018-05-18T08:56:57.616Z,3.58
2018-05-18T08:59:25.190Z,3.33
2018-05-18T09:01:52.719Z,3.23
2018-05-18T09:04:20.280Z,3.45
2018-05-18T09:06:47.805Z,3.15
2018-05-18T09:09:16.129Z,3.58
2018-05-18T09:11:43.654Z,3.58
2018-05-18T09:14:12.329Z,3.45
2018-05-18T09:16:40.636Z,2.78
2018-05-18T09:19:08.182Z,2.67
2018-05-18T09:21:35.707Z,3.10
2018-05-18T09:24:03.248Z,3.53
2018-05-18T09:26:30.902Z,2.53
2018-05-18T09:28:58.371Z,2.65
2018-05-18T09:31:25.928Z,3.03
2018-05-18T09:33:53.546Z,3.22
2018-05-18T09:36:21.009Z,2.95
2018-05-18T09:38:48.560Z,3.62
2018-05-18T09:41:16.876Z,2.72
2018-05-18T09:43:44.397Z,2.72
2018-05-18T09:46:12.698Z,3.58
2018-05-18T09:48:40.222Z,2.67
2018-05-18T09:51:08.527Z,2.58
2018-05-18T09:53:36.056Z,2.92
2018-05-18T09:56:04.378Z,2.60
2018-05-18T09:58:31.912Z,3.28
2018-05-18T10:01:00.245Z,3.12
2018-05-18T10:03:27.777Z,2.75
2018-05-18T10:05:55.330Z,3.00
2018-05-18T10:08:23.152Z,2.90
2018-05-18T10:10:50.713Z,2.92
2018-05-18T10:13:18.239Z,2.33
2018-05-18T10:15:45.779Z,2.30
2018-05-18T10:18:13.308Z,3.37
2018-05-18T10:20:41.625Z,3.05
2018-05-18T10:23:09.211Z,2.58
2018-05-18T10:25:36.778Z,2.80
2018-05-18T10:28:04.321Z,3.00
2018-05-18T10:30:31.877Z,2.72
2018-05-18T10:33:00.205Z,2.83
2018-05-18T10:35:28.522Z,2.85
2018-05-18T10:37:56.061Z,2.65
2018-05-18T10:40:23.627Z,3.42
2018-05-18T10:42:51.170Z,2.85
2018-05-18T10:45:19.639Z,3.12
2018-05-18T10:47:47.094Z,2.40
2018-05-18T10:50:15.397Z,2.83
2018-05-18T10:52:42.949Z,2.70
2018-05-18T10:55:10.481Z,3.75
2018-05-18T10:57:38.036Z,3.12
2018-05-18T11:00:05.570Z,2.60
2018-05-18T11:02:33.099Z,2.37
2018-05-18T11:05:00.633Z,2.70
2018-05-18T11:07:28.956Z,1.98
2018-05-18T11:09:56.479Z,2.92
2018-05-18T11:12:24.801Z,2.67
2018-05-18T11:14:52.331Z,2.30
2018-05-18T11:17:19.871Z,3.03
2018-05-18T11:19:48.164Z,2.03
2018-05-18T11:22:15.730Z,2.92
2018-05-18T11:24:43.259Z,2.37
2018-05-18T11:27:10.807Z,2.72
2018-05-18T11:29:38.340Z,2.70
2018-05-18T11:32:05.884Z,2.10
2018-05-18T11:34:33.418Z,2.72
2018-05-18T11:37:01.738Z,2.35
2018-05-18T11:39:29.276Z,2.25
2018-05-18T11:41:56.822Z,2.50
2018-05-18T11:44:25.132Z,2.42
2018-05-18T11:46:52.701Z,2.75
2018-05-18T11:49:20.229Z,2.10
2018-05-18T11:51:47.779Z,2.30
2018-05-18T11:54:16.107Z,2.62
2018-05-18T11:56:43.676Z,2.15
2018-05-18T11:59:11.199Z,2.65
2018-05-18T12:01:38.767Z,2.53
2018-05-18T12:04:06.307Z,2.75
2018-05-18T12:06:33.844Z,3.20
2018-05-18T12:09:02.159Z,2.60
2018-05-18T12:11:29.691Z,2.20
2018-05-18T12:13:58.037Z,2.92
2018-05-18T12:16:25.561Z,2.37
2018-05-18T12:18:53.105Z,2.50
2018-05-18T12:21:20.630Z,2.62
2018-05-18T12:23:48.185Z,2.67
2018-05-18T12:26:16.171Z,3.15
2018-05-18T13:50:40.909Z,2.80
2018-05-18T13:53:08.441Z,2.60
2018-05-18T13:55:35.982Z,3.13
2018-05-18T13:58:03.502Z,2.55
2018-05-18T14:00:31.052Z,3.28
2018-05-18T14:02:58.577Z,2.90
2018-05-18T14:05:26.129Z,3.30
2018-05-18T14:07:53.646Z,3.10
2018-05-18T14:10:21.214Z,3.40
2018-05-18T14:12:49.508Z,3.37
2018-05-18T14:15:17.069Z,2.90
2018-05-18T14:17:45.363Z,3.00
2018-05-18T14:20:12.902Z,2.43
2018-05-18T14:22:41.221Z,2.80
2018-05-18T14:25:09.594Z,3.35
2018-05-18T14:27:37.122Z,2.80
2018-05-18T14:30:05.426Z,3.23
2018-05-18T14:32:32.971Z,3.00
2018-05-18T14:35:00.540Z,3.10
2018-05-18T14:37:28.067Z,3.57
2018-05-18T14:39:56.388Z,2.63
2018-05-18T14:42:23.944Z,3.40
2018-05-18T14:44:51.611Z,2.73
2018-05-18T14:47:19.134Z,3.17
2018-05-18T14:49:47.433Z,2.73
2018-05-18T14:52:14.989Z,2.77
2018-05-18T14:54:42.522Z,3.27
2018-05-18T14:57:10.847Z,3.63
2018-05-18T14:59:38.376Z,2.90
2018-05-18T15:02:05.986Z,2.83
2018-05-18T15:04:33.528Z,3.23
2018-05-18T15:07:01.059Z,3.67
2018-05-18T15:09:29.355Z,2.93
2018-05-18T15:11:56.906Z,2.87
2018-05-18T15:14:24.431Z,3.10
2018-05-18T15:16:51.995Z,3.53
2018-05-18T15:19:20.299Z,3.17
2018-05-18T15:21:47.893Z,3.43
2018-05-18T15:24:15.451Z,3.37
2018-05-18T15:26:43.003Z,3.07
2018-05-18T15:29:10.540Z,3.73
2018-05-18T15:31:38.079Z,2.97
2018-05-18T15:34:06.382Z,3.63
2018-05-18T15:36:33.931Z,3.37
2018-05-18T15:39:02.324Z,3.33
2018-05-18T15:41:29.878Z,3.50
2018-05-18T15:43:57.412Z,3.30
2018-05-18T15:46:25.729Z,3.30
2018-05-18T15:48:53.274Z,2.80
2018-05-18T15:51:20.835Z,4.10
2018-05-18T15:53:48.358Z,3.30
2018-05-18T15:56:15.905Z,3.17
2018-05-18T15:58:43.431Z,3.20
2018-05-18T16:01:10.981Z,3.50
2018-05-18T16:03:38.519Z,3.20
2018-05-18T16:06:06.819Z,3.50
2018-05-18T16:08:34.367Z,3.73
2018-05-18T16:11:01.909Z,2.90
2018-05-18T16:13:30.233Z,3.73
2018-05-18T16:15:57.771Z,2.97
2018-05-18T16:18:25.328Z,3.10
2018-05-18T16:20:52.913Z,4.43
2018-05-18T16:23:21.462Z,3.80
2018-05-18T16:25:49.768Z,4.03
2018-05-18T16:28:17.417Z,3.63
2018-05-18T16:30:44.902Z,3.10
2018-05-18T16:33:12.456Z,3.73
2018-05-18T16:35:40.008Z,3.40
2018-05-18T16:38:07.584Z,3.17
2018-05-18T16:40:35.124Z,3.77
2018-05-18T16:43:02.703Z,3.70
2018-05-18T16:45:30.242Z,3.57
2018-05-18T16:47:57.805Z,3.00
2018-05-18T16:50:25.344Z,2.70
2018-05-18T16:52:53.729Z,2.80
2018-05-18T16:55:21.408Z,3.70
2018-05-18T16:57:48.960Z,3.07
2018-05-18T17:00:16.499Z,2.93
2018-05-18T17:02:44.845Z,3.10
2018-05-18T17:05:12.396Z,2.73
2018-05-18T17:07:39.971Z,2.63
2018-05-18T17:10:07.511Z,3.83
2018-05-18T17:12:35.080Z,2.77
2018-05-18T17:15:02.620Z,3.63
2018-05-18T17:17:30.179Z,3.23
2018-05-18T17:19:57.746Z,3.27
2018-05-18T17:22:25.276Z,2.80
2018-05-18T17:24:52.819Z,2.87
2018-05-18T17:27:21.118Z,2.90
2018-05-18T17:29:48.662Z,2.97
2018-05-18T17:32:16.949Z,2.50
2018-05-18T17:34:44.501Z,3.17
2018-05-18T17:37:12.041Z,2.60
2018-05-18T17:39:40.373Z,2.60
2018-05-18T17:42:07.998Z,2.90
2018-05-18T17:44:35.482Z,3.30
2018-05-18T17:47:03.007Z,3.10
2018-05-18T17:49:31.320Z,3.20
2018-05-18T17:51:58.843Z,3.07
2018-05-18T17:54:27.243Z,3.47
2018-05-18T17:56:54.704Z,3.37
2018-05-18T17:59:22.268Z,2.70
2018-05-18T18:01:49.796Z,3.07
2018-05-18T18:04:18.129Z,3.17
2018-05-18T18:06:47.836Z,2.90
2018-05-18T18:09:15.369Z,3.37
2018-05-18T18:11:42.914Z,3.10
2018-05-18T18:14:11.320Z,2.87
2018-05-18T18:16:38.755Z,3.30
2018-05-18T18:19:07.065Z,3.40
2018-05-18T18:21:34.598Z,3.80
2018-05-18T18:24:02.908Z,3.73
2018-05-18T18:26:30.433Z,3.00
2018-05-18T18:28:58.752Z,3.90
2018-05-18T18:31:26.278Z,3.17
2018-05-18T18:33:53.798Z,3.53
2018-05-18T18:36:21.369Z,3.83
2018-05-18T18:38:48.896Z,3.20
2018-05-18T18:41:16.458Z,3.37
2018-05-18T18:43:43.996Z,3.57
2018-05-18T18:46:11.535Z,3.40
2018-05-18T18:48:39.075Z,2.90
2018-05-18T18:51:07.400Z,3.50
2018-05-18T18:53:34.917Z,3.50
2018-05-18T18:56:03.244Z,3.47
2018-05-18T18:58:30.776Z,3.10
2018-05-18T19:00:58.315Z,3.67
2018-05-18T19:03:26.617Z,3.40
2018-05-18T19:05:54.163Z,3.27
2018-05-18T19:08:22.508Z,4.07
2018-05-18T19:10:50.801Z,3.90
2018-05-18T19:13:19.101Z,4.00
2018-05-18T19:15:46.642Z,3.93
2018-05-18T19:18:14.947Z,3.67
2018-05-18T19:20:42.503Z,4.90
2018-05-18T19:23:10.047Z,3.50
2018-05-18T19:25:38.364Z,3.87
2018-05-18T19:28:05.901Z,3.30
2018-05-18T19:30:33.462Z,4.90
2018-05-18T19:33:01.706Z,3.60
2018-05-18T19:35:30.032Z,4.47
2018-05-18T19:37:57.552Z,3.90
2018-05-18T19:40:25.873Z,3.33
2018-05-18T19:42:53.464Z,3.80
2018-05-18T19:45:21.783Z,3.67
2018-05-18T19:47:49.307Z,4.47
2018-05-18T19:50:16.836Z,4.57
2018-05-18T19:52:44.417Z,4.03
2018-05-18T19:55:12.706Z,4.07
2018-05-18T19:57:40.245Z,4.83
2018-05-18T20:00:07.762Z,4.70
2018-05-18T20:02:35.311Z,4.17
2018-05-18T20:05:03.604Z,4.63
2018-05-18T20:07:31.159Z,5.03
2018-05-18T20:09:58.713Z,5.17
2018-05-18T20:12:27.033Z,4.37
2018-05-18T20:14:54.546Z,4.03
2018-05-18T20:17:22.850Z,4.37
2018-05-18T20:19:50.413Z,4.37
2018-05-18T20:22:17.956Z,4.90
2018-05-18T20:24:45.489Z,4.30
2018-05-18T20:27:13.048Z,4.47
2018-05-18T20:29:41.546Z,4.87
2018-05-18T20:32:09.094Z,4.93
2018-05-18T20:34:36.618Z,4.57
2018-05-18T20:37:04.159Z,4.70
2018-05-18T20:39:31.687Z,5.10
2018-05-18T20:42:00.007Z,4.33
2018-05-18T20:44:27.527Z,4.23
2018-05-18T20:46:55.859Z,4.90
2018-05-18T20:49:23.403Z,4.63
2018-05-18T20:51:51.051Z,4.73
2018-05-18T20:54:18.524Z,4.87
2018-05-18T20:56:46.059Z,4.37
2018-05-18T20:59:13.604Z,5.57
2018-05-18T21:01:41.953Z,5.17
2018-05-18T21:04:09.496Z,5.63
2018-05-18T21:06:37.029Z,5.07
2018-05-18T21:09:05.398Z,6.23
2018-05-18T21:11:32.944Z,4.97
2018-05-18T21:14:01.271Z,5.20
2018-05-18T21:16:28.810Z,5.17
2018-05-18T21:18:56.365Z,5.57
2018-05-18T21:21:23.884Z,5.03
2018-05-18T21:23:51.434Z,5.67
2018-05-18T21:26:19.798Z,5.03
2018-05-18T21:28:47.339Z,4.77
2018-05-18T21:31:14.865Z,5.07
2018-05-18T21:33:43.176Z,5.00
2018-05-18T21:36:10.723Z,5.23
2018-05-18T21:38:38.275Z,5.63
2018-05-18T21:41:05.818Z,5.07
2018-05-18T21:43:34.163Z,4.63
2018-05-18T21:46:01.694Z,4.63
2018-05-18T21:48:29.230Z,4.87
2018-05-18T21:50:56.760Z,4.63
2018-05-18T21:53:24.311Z,5.60
2018-05-18T21:55:51.835Z,5.60
2018-05-18T22:00:24.001Z,4.80
2018-05-18T22:02:51.564Z,4.73
2018-05-18T22:05:19.100Z,5.03
2018-05-18T22:07:47.447Z,5.50
2018-05-18T22:10:14.986Z,4.80
2018-05-18T22:12:42.518Z,5.43
2018-05-18T22:15:10.090Z,4.93
2018-05-18T22:17:37.623Z,5.50
2018-05-18T22:20:05.172Z,4.90
2018-05-18T22:22:33.500Z,4.83
2018-05-18T22:25:01.074Z,4.67
2018-05-18T22:27:28.600Z,5.03
2018-05-18T22:29:56.161Z,4.80
2018-05-18T22:32:23.699Z,5.43
2018-05-18T22:34:52.010Z,5.10
2018-05-18T22:37:19.531Z,5.13
2018-05-18T22:39:47.865Z,5.33
2018-05-18T22:42:15.389Z,5.43
2018-05-18T22:44:42.929Z,6.87
2018-05-18T22:47:11.239Z,5.93
2018-05-18T22:49:38.784Z,5.97
2018-05-18T22:52:06.384Z,5.23
2018-05-18T22:54:33.940Z,6.37
2018-05-18T22:57:01.491Z,6.10
2018-05-18T22:59:29.041Z,6.27
2018-05-18T23:01:56.572Z,6.50
2018-05-18T23:04:24.885Z,5.83
2018-05-18T23:06:52.428Z,6.13
2018-05-18T23:09:20.284Z,6.17
2018-05-18T23:11:47.828Z,6.50
2018-05-18T23:14:16.148Z,6.87
2018-05-18T23:16:43.737Z,6.63
2018-05-18T23:19:12.260Z,6.37
2018-05-18T23:21:39.938Z,7.23
2018-05-18T23:24:07.532Z,7.13
2018-05-18T23:26:35.103Z,6.50
2018-05-18T23:29:02.701Z,7.33
2018-05-18T23:31:31.054Z,7.00
2018-05-18T23:33:58.577Z,7.57
2018-05-18T23:36:26.125Z,7.77
2018-05-18T23:38:53.655Z,7.10
2018-05-18T23:41:21.970Z,7.97
2018-05-18T23:43:49.518Z,7.90
2018-05-18T23:46:17.069Z,8.23
2018-05-18T23:48:44.605Z,8.87
2018-05-18T23:51:12.157Z,8.80
2018-05-18T23:53:39.688Z,10.17
2018-05-18T23:56:08.278Z,8.67
2018-05-18T23:58:35.814Z,10.60
